RJTY/OKO METAR and TAF weather

Enter ICAO airport designator
Station Type Date Time Source
RJTY METAR 2021/04/17 03:16 UTC NOAA

RJTY 170316Z 11004KT 7SM -DZ SCT005 OVC012 14/14 A3011 RMK AO2A DZE11DZB16 SLPNO FZRANO $


Station Type Date Time Source
RJTY Decoded METAR 2021/04/17 03:16 UTC NOAA

Yokota Ab, Japan (RJTY) 35-45N 139-21E 142M
Apr 16, 2021 - 11:16 PM EDT / 2021.04.17 0316 UTC
Wind: from the ESE (110 degrees) at 5 MPH (4 KT):0
Visibility: 7 mile(s):0
Sky conditions: overcast
Weather: light drizzle
Temperature: 57 F (14 C)
Dew Point: 57 F (14 C)
Relative Humidity: 100%
Pressure (altimeter): 30.11 in. Hg (1019 hPa)
ob: RJTY 170316Z 11004KT 7SM -DZ SCT005 OVC012 14/14 A3011 RMK AO2A DZE11DZB16 SLPNO FZRANO
cycle: 3

Station Type Date Time Source
RJTY TAF 2021/04/17 02:09 UTC NOAA

TAF TAF
AMD RJTY 170200Z 1702/1803 11009KT 6000 -RA BR SCT006 OVC015 QNH3010INS
TEMPO 1702/1704 3200 -RA BR BKN006 OVC015
BECMG 1704/1705 18012G18KT 6000 -RA BR SCT008 OVC015 QNH3000INS
TEMPO 1705/1710 3200 -RA BR BKN008
BECMG 1710/1711 18015G25KT 6000 -RA BKN008 OVC015 QNH2975INS
BECMG 1714/1715 18009KT 3200 -RA BR BKN008 OVC015 QNH2970INS
BECMG 1718/1719 34012KT 9999 NSW FEW015 SCT030 QNH2965INS
BECMG 1723/1724 34015G25KT 9999 SKC QNH2966INS TX17/1705Z TN10/1721Z

Example: see airport list